Terminal Aerodrome Forecast
Issued by NWS

Home | Current Version | Previous Version | Text Only | Print | Product List | Glossary On
Versions: 1 2 3 4 5 6 7 8 9 10 11 12 13 14 15 16 17 18 19 20
000
FTUS43 KFGF 202300
TAFBJI
TAF
KBJI 202320Z 2100/2124 29020G30KT 5SM -RA BKN015 OVC025
     FM210100 29015G22KT P6SM BKN035
     FM210400 30008KT P6SM SCT070
     FM210900 29007KT P6SM OVC015
     FM212100 31008KT P6SM FEW250=

USA.gov is the U.S. government's official web portal to all federal, state and local government web resources and services.